createdAt,value
2023-04-27T00:01:39.486Z,5.60
2023-04-27T00:04:07.517Z,5.40
2023-04-27T00:06:34.978Z,5.50
2023-04-27T00:09:01.789Z,5.40
2023-04-27T00:11:29.027Z,5.40
2023-04-27T00:13:56.578Z,5.30
2023-04-27T00:16:23.432Z,5.30
2023-04-27T00:18:50.280Z,5.20
2023-04-27T00:21:17.172Z,5.10
2023-04-27T00:23:44.361Z,5.10
2023-04-27T00:26:11.180Z,5.00
2023-04-27T00:28:37.958Z,5.00
2023-04-27T00:31:04.891Z,4.90
2023-04-27T00:33:31.822Z,4.80
2023-04-27T00:36:02.032Z,4.70
2023-04-27T00:38:29.599Z,4.70
2023-04-27T00:41:07.691Z,4.80
2023-04-27T00:43:42.728Z,4.60
2023-04-27T00:46:10.153Z,4.50
2023-04-27T00:48:37.749Z,4.40
2023-04-27T00:51:05.428Z,4.30
2023-04-27T00:53:33.271Z,4.30
2023-04-27T00:56:00.509Z,4.20
2023-04-27T00:58:27.448Z,4.30
2023-04-27T01:00:54.377Z,4.20
2023-04-27T01:03:22.175Z,4.20
2023-04-27T01:05:49.218Z,4.10
2023-04-27T01:08:16.102Z,4.10
2023-04-27T01:10:43.183Z,4.00
2023-04-27T01:13:10.717Z,4.00
2023-04-27T01:15:37.557Z,4.00
2023-04-27T01:18:04.501Z,3.90
2023-04-27T01:20:32.341Z,3.80
2023-04-27T01:22:59.931Z,3.80
2023-04-27T01:25:26.735Z,3.80
2023-04-27T01:27:54.495Z,3.70
2023-04-27T01:30:22.663Z,3.70
2023-04-27T01:32:50.296Z,3.60
2023-04-27T01:35:17.457Z,3.80
2023-04-27T01:37:44.355Z,3.70
2023-04-27T01:40:11.954Z,3.60
2023-04-27T01:42:39.157Z,3.60
2023-04-27T01:45:06.617Z,3.50
2023-04-27T01:47:33.585Z,3.50
2023-04-27T01:50:00.424Z,3.40
2023-04-27T01:52:27.890Z,3.40
2023-04-27T01:54:57.874Z,3.20
2023-04-27T01:57:25.327Z,3.30
2023-04-27T01:59:52.236Z,3.30
2023-04-27T02:02:19.166Z,3.20
2023-04-27T02:04:48.371Z,3.30
2023-04-27T02:07:15.283Z,3.20
2023-04-27T02:09:42.148Z,3.20
2023-04-27T02:12:08.958Z,3.10
2023-04-27T02:14:35.987Z,3.10
2023-04-27T02:17:02.839Z,3.10
2023-04-27T02:19:29.724Z,3.00
2023-04-27T02:21:56.696Z,3.00
2023-04-27T02:24:23.511Z,3.00
2023-04-27T02:26:50.513Z,2.90
2023-04-27T02:29:17.532Z,2.90
2023-04-27T02:31:44.866Z,2.90
2023-04-27T02:34:11.778Z,2.90
2023-04-27T02:36:38.554Z,2.90
2023-04-27T02:39:05.766Z,2.90
2023-04-27T02:41:32.947Z,2.90
2023-04-27T02:43:59.889Z,2.90
2023-04-27T02:46:27.461Z,2.90
2023-04-27T02:48:55.472Z,2.90
2023-04-27T02:51:22.606Z,2.90
2023-04-27T02:53:49.730Z,3.00
2023-04-27T02:56:16.722Z,2.90
2023-04-27T02:58:44.850Z,3.10
2023-04-27T03:01:11.933Z,3.00
2023-04-27T03:03:39.216Z,2.90
2023-04-27T03:06:06.478Z,2.90
2023-04-27T03:08:33.270Z,2.90
2023-04-27T03:11:00.028Z,2.80
2023-04-27T03:13:26.890Z,2.90
2023-04-27T03:15:53.701Z,2.90
2023-04-27T03:18:20.560Z,2.80
2023-04-27T03:20:47.536Z,2.80
2023-04-27T03:23:14.524Z,2.80
2023-04-27T03:25:41.452Z,2.70
2023-04-27T03:28:08.410Z,2.70
2023-04-27T03:30:35.192Z,2.70
2023-04-27T03:33:02.083Z,2.60
2023-04-27T03:35:28.930Z,2.60
2023-04-27T03:37:55.709Z,2.60
2023-04-27T03:40:22.664Z,2.70
2023-04-27T03:42:49.508Z,2.50
2023-04-27T03:45:18.600Z,2.40
2023-04-27T03:47:45.719Z,2.40
2023-04-27T03:50:12.645Z,2.50
2023-04-27T03:52:39.431Z,2.40
2023-04-27T03:55:07.137Z,2.30
2023-04-27T03:57:33.985Z,2.20
2023-04-27T04:00:00.789Z,2.20
2023-04-27T04:02:27.931Z,2.10
2023-04-27T04:04:55.149Z,2.10
2023-04-27T04:07:21.957Z,2.10
2023-04-27T04:09:48.839Z,2.00
2023-04-27T04:12:15.971Z,2.00
2023-04-27T04:14:42.976Z,2.00
2023-04-27T04:17:10.992Z,2.00
2023-04-27T04:19:37.947Z,2.00
2023-04-27T04:22:05.129Z,1.90
2023-04-27T04:24:32.037Z,1.90
2023-04-27T04:26:58.778Z,1.90
2023-04-27T04:29:25.955Z,1.90
2023-04-27T04:31:53.000Z,1.90
2023-04-27T04:34:20.152Z,1.90
2023-04-27T04:36:46.963Z,2.00
2023-04-27T04:39:14.016Z,2.00
2023-04-27T04:41:40.983Z,2.00
2023-04-27T04:44:07.891Z,2.10
2023-04-27T04:46:35.163Z,2.10
2023-04-27T04:49:02.672Z,2.20
2023-04-27T04:51:29.460Z,2.20
2023-04-27T04:53:56.628Z,2.30
2023-04-27T04:56:23.620Z,2.50
2023-04-27T04:58:50.546Z,2.50
2023-04-27T05:01:17.328Z,2.60
2023-04-27T05:03:44.420Z,2.70
2023-04-27T05:06:11.478Z,2.80
2023-04-27T05:08:38.221Z,3.00
2023-04-27T05:11:05.111Z,3.50
2023-04-27T05:13:32.095Z,4.00
2023-04-27T05:15:58.998Z,4.70
2023-04-27T05:18:26.047Z,5.40
2023-04-27T05:20:52.945Z,6.10
2023-04-27T05:23:19.679Z,6.50
2023-04-27T05:25:46.574Z,6.90
2023-04-27T05:28:13.433Z,7.10
2023-04-27T05:30:40.407Z,7.40
2023-04-27T05:33:07.351Z,7.60
2023-04-27T05:35:34.489Z,8.00
2023-04-27T05:38:01.525Z,8.60
2023-04-27T05:40:28.722Z,9.00
2023-04-27T05:42:55.592Z,9.40
2023-04-27T05:45:22.694Z,9.70
2023-04-27T05:47:49.489Z,10.20
2023-04-27T05:50:16.532Z,10.70
2023-04-27T05:52:43.442Z,11.30
2023-04-27T05:55:10.759Z,11.70
2023-04-27T05:57:37.514Z,12.00
2023-04-27T06:00:15.207Z,12.30
2023-04-27T06:02:42.638Z,12.50
2023-04-27T06:05:10.283Z,12.70
2023-04-27T06:07:37.939Z,12.80
2023-04-27T06:10:05.477Z,12.90
2023-04-27T06:12:32.800Z,13.00
2023-04-27T06:14:59.827Z,12.90
2023-04-27T06:17:26.684Z,13.10
2023-04-27T06:19:53.481Z,13.50
2023-04-27T06:22:20.385Z,13.40
2023-04-27T06:24:47.182Z,13.60
2023-04-27T06:27:14.129Z,14.10
2023-04-27T06:29:41.569Z,14.00
2023-04-27T06:32:08.708Z,13.90
2023-04-27T06:34:36.189Z,13.90
2023-04-27T06:37:02.997Z,13.90
2023-04-27T06:39:29.864Z,13.90
2023-04-27T06:41:56.746Z,14.00
2023-04-27T06:44:23.609Z,14.10
2023-04-27T06:46:50.475Z,14.40
2023-04-27T06:49:17.360Z,14.30
2023-04-27T06:51:44.407Z,14.10
2023-04-27T06:54:12.258Z,14.00
2023-04-27T06:56:39.172Z,14.20
2023-04-27T06:59:06.182Z,14.20
2023-04-27T07:01:33.245Z,13.80
2023-04-27T07:04:00.230Z,13.80
2023-04-27T07:06:28.784Z,14.00
2023-04-27T07:08:55.972Z,14.40
2023-04-27T07:11:23.257Z,15.20
2023-04-27T07:13:50.316Z,15.40
2023-04-27T07:16:17.566Z,15.60
2023-04-27T07:18:44.476Z,15.40
2023-04-27T07:21:11.636Z,15.20
2023-04-27T07:23:40.571Z,15.10
2023-04-27T07:26:08.143Z,15.10
2023-04-27T07:28:35.405Z,15.40
2023-04-27T07:31:04.596Z,15.90
2023-04-27T07:33:32.056Z,15.50
2023-04-27T07:35:59.252Z,15.40
2023-04-27T07:38:26.324Z,15.50
2023-04-27T07:40:54.524Z,15.50
2023-04-27T07:43:23.078Z,15.60
2023-04-27T07:45:50.318Z,15.50
2023-04-27T07:48:17.429Z,15.50
2023-04-27T07:50:44.369Z,15.20
2023-04-27T07:53:11.532Z,14.60
2023-04-27T07:55:38.365Z,14.50
2023-04-27T07:58:05.822Z,14.60
2023-04-27T08:00:32.870Z,15.30
2023-04-27T08:03:00.091Z,16.00
2023-04-27T08:05:27.394Z,16.20
2023-04-27T08:07:55.234Z,16.50
2023-04-27T08:10:22.848Z,16.60
2023-04-27T08:12:49.741Z,16.90
2023-04-27T08:15:17.140Z,17.40
2023-04-27T08:17:44.124Z,17.50
2023-04-27T08:20:11.806Z,17.40
2023-04-27T08:22:40.549Z,17.30
2023-04-27T08:25:08.687Z,17.80
2023-04-27T08:27:40.180Z,17.80
2023-04-27T08:30:08.611Z,17.70
2023-04-27T08:32:35.813Z,17.50
2023-04-27T08:35:02.701Z,17.20
2023-04-27T08:37:29.635Z,17.20
2023-04-27T08:39:56.629Z,17.40
2023-04-27T08:42:23.857Z,17.80
2023-04-27T08:44:50.974Z,18.00
2023-04-27T08:47:20.211Z,18.20
2023-04-27T08:49:52.859Z,18.00
2023-04-27T08:52:19.917Z,17.40
2023-04-27T08:54:46.942Z,16.80
2023-04-27T08:57:16.189Z,16.60
2023-04-27T08:59:46.132Z,16.40
2023-04-27T09:02:21.129Z,16.40
2023-04-27T09:04:48.149Z,16.80
2023-04-27T09:07:17.075Z,16.90
2023-04-27T09:09:45.120Z,16.20
2023-04-27T09:12:20.691Z,15.80
2023-04-27T09:15:02.224Z,15.60
2023-04-27T09:17:30.426Z,15.70
2023-04-27T09:20:23.941Z,15.00
2023-04-27T09:22:57.613Z,14.10
2023-04-27T09:25:32.467Z,13.90
2023-04-27T09:28:00.830Z,14.30
2023-04-27T09:30:29.087Z,15.00
2023-04-27T09:32:58.330Z,15.60
2023-04-27T09:35:27.237Z,15.90
2023-04-27T09:37:55.054Z,16.30
2023-04-27T09:40:27.978Z,16.20
2023-04-27T09:42:57.051Z,16.20
2023-04-27T09:45:25.727Z,16.40
2023-04-27T09:47:53.629Z,16.80
2023-04-27T09:50:22.059Z,17.30
2023-04-27T09:52:49.432Z,17.20
2023-04-27T09:55:24.717Z,17.30
2023-04-27T09:58:04.061Z,17.50
2023-04-27T10:00:40.209Z,17.20
2023-04-27T10:03:30.823Z,17.10
2023-04-27T10:06:16.773Z,17.30
2023-04-27T10:08:44.680Z,17.50
2023-04-27T10:11:20.894Z,17.30
2023-04-27T10:13:55.399Z,17.10
2023-04-27T10:16:22.941Z,16.70
2023-04-27T10:18:55.523Z,16.50
2023-04-27T10:21:23.823Z,16.40
2023-04-27T10:23:52.243Z,16.60
2023-04-27T10:26:26.745Z,16.70
2023-04-27T10:29:07.399Z,16.80
2023-04-27T10:31:35.200Z,17.00
2023-04-27T10:34:21.301Z,17.20
2023-04-27T10:36:48.490Z,17.20
2023-04-27T10:39:29.801Z,17.20
2023-04-27T10:41:59.862Z,16.80
2023-04-27T10:44:31.303Z,16.80
2023-04-27T10:47:13.215Z,17.00
2023-04-27T10:49:40.325Z,17.20
2023-04-27T10:52:10.702Z,17.30
2023-04-27T10:54:39.552Z,17.30
2023-04-27T10:57:10.944Z,17.60
2023-04-27T10:59:55.498Z,17.40
2023-04-27T11:02:27.396Z,17.10
2023-04-27T11:04:55.857Z,17.10
2023-04-27T11:07:28.221Z,17.10
2023-04-27T11:09:55.718Z,17.20
2023-04-27T11:12:23.119Z,17.30
2023-04-27T11:14:49.893Z,17.50
2023-04-27T11:17:17.033Z,17.60
2023-04-27T11:19:50.482Z,17.30
2023-04-27T11:22:17.455Z,17.40
2023-04-27T11:24:52.379Z,17.60
2023-04-27T11:27:22.322Z,17.40
2023-04-27T11:29:49.201Z,16.90
2023-04-27T11:32:23.727Z,16.70
2023-04-27T11:34:53.591Z,16.50
2023-04-27T11:37:25.889Z,16.40
2023-04-27T11:39:54.766Z,16.40
2023-04-27T11:42:23.568Z,16.30
2023-04-27T11:44:59.970Z,16.50
2023-04-27T11:47:31.108Z,16.70
2023-04-27T11:50:02.330Z,16.60
2023-04-27T11:52:33.554Z,16.80
2023-04-27T11:55:02.089Z,17.20
2023-04-27T11:57:30.555Z,17.20
2023-04-27T12:00:02.304Z,17.10
2023-04-27T12:02:31.499Z,17.00
2023-04-27T12:04:59.889Z,16.70
2023-04-27T12:07:27.277Z,16.60
2023-04-27T12:09:54.483Z,16.90
2023-04-27T12:12:24.767Z,17.10
2023-04-27T12:14:52.042Z,17.10
2023-04-27T12:17:19.541Z,17.10
2023-04-27T12:19:46.617Z,17.00
2023-04-27T12:22:14.432Z,16.70
2023-04-27T12:24:41.497Z,16.30
2023-04-27T12:27:08.521Z,15.90
2023-04-27T12:29:35.598Z,15.40
2023-04-27T12:32:02.429Z,14.60
2023-04-27T12:34:29.375Z,13.90
2023-04-27T12:36:56.300Z,13.60
2023-04-27T12:39:25.498Z,13.80
2023-04-27T12:41:53.724Z,14.30
2023-04-27T12:44:21.352Z,14.70
2023-04-27T12:46:48.596Z,15.40
2023-04-27T12:49:15.913Z,15.80
2023-04-27T12:51:44.045Z,15.90
2023-04-27T12:54:13.134Z,16.00
2023-04-27T12:56:40.208Z,16.10
2023-04-27T12:59:07.164Z,16.20
2023-04-27T13:01:34.142Z,16.30
2023-04-27T13:04:02.776Z,16.40
2023-04-27T13:06:32.157Z,16.30
2023-04-27T13:09:02.689Z,16.40
2023-04-27T13:11:29.585Z,16.40
2023-04-27T13:13:56.810Z,16.20
2023-04-27T13:16:25.649Z,16.10
2023-04-27T13:18:53.612Z,15.80
2023-04-27T13:21:27.871Z,15.70
2023-04-27T13:23:55.179Z,15.60
2023-04-27T13:26:22.486Z,15.50
2023-04-27T13:28:49.850Z,15.30
2023-04-27T13:31:16.768Z,15.20
2023-04-27T13:33:44.339Z,15.10
2023-04-27T13:36:12.423Z,15.00
2023-04-27T13:38:39.494Z,14.90
2023-04-27T13:41:06.851Z,14.90
2023-04-27T13:43:33.847Z,15.00
2023-04-27T13:46:02.963Z,15.10
2023-04-27T13:48:31.089Z,15.20
2023-04-27T13:50:58.269Z,15.10
2023-04-27T13:53:25.868Z,15.00
2023-04-27T13:55:57.190Z,14.80
2023-04-27T13:58:26.187Z,14.70
2023-04-27T14:00:53.959Z,14.60
2023-04-27T14:03:21.746Z,14.60
2023-04-27T14:05:50.961Z,14.50
2023-04-27T14:08:18.737Z,14.30
2023-04-27T14:10:46.040Z,14.20
2023-04-27T14:13:13.415Z,14.20
2023-04-27T14:15:41.208Z,14.10
2023-04-27T14:18:08.904Z,14.10
2023-04-27T14:20:37.163Z,14.10
2023-04-27T14:23:05.471Z,14.00
2023-04-27T14:25:35.253Z,14.00
2023-04-27T14:28:04.428Z,14.10
2023-04-27T14:30:35.575Z,14.00
2023-04-27T14:33:03.102Z,14.10
2023-04-27T14:35:30.221Z,14.00
2023-04-27T14:38:01.966Z,14.00
2023-04-27T14:40:33.026Z,14.10
2023-04-27T14:43:00.250Z,14.00
2023-04-27T14:45:33.586Z,13.90
2023-04-27T14:48:07.498Z,13.80
2023-04-27T14:50:34.632Z,13.70
2023-04-27T14:53:01.854Z,13.60
2023-04-27T14:55:29.404Z,13.50
2023-04-27T14:57:56.219Z,13.60
2023-04-27T15:00:23.428Z,13.50
2023-04-27T15:02:50.714Z,13.40
2023-04-27T15:05:17.677Z,13.40
2023-04-27T15:07:44.895Z,13.30
2023-04-27T15:10:11.774Z,13.20
2023-04-27T15:12:38.642Z,13.20
2023-04-27T15:15:07.371Z,13.30
2023-04-27T15:17:36.506Z,13.30
2023-04-27T15:20:05.382Z,13.30
2023-04-27T15:22:32.495Z,13.20
2023-04-27T15:24:59.410Z,13.20
2023-04-27T15:27:26.437Z,13.20
2023-04-27T15:29:58.594Z,13.30
2023-04-27T15:32:30.025Z,13.30
2023-04-27T15:35:00.876Z,13.20
2023-04-27T15:37:29.069Z,13.20
2023-04-27T15:39:56.304Z,13.20
2023-04-27T15:42:24.343Z,13.20
2023-04-27T15:44:51.357Z,13.20
2023-04-27T15:47:18.223Z,13.20
2023-04-27T15:49:56.215Z,13.20
2023-04-27T15:52:24.117Z,13.10
2023-04-27T15:54:51.107Z,13.20
2023-04-27T15:57:18.402Z,13.10
2023-04-27T15:59:49.427Z,13.10
2023-04-27T16:02:20.348Z,13.10
2023-04-27T16:04:55.288Z,13.00
2023-04-27T16:07:55.566Z,13.00
2023-04-27T16:10:25.871Z,13.00
2023-04-27T16:12:52.787Z,13.00
2023-04-27T16:15:19.708Z,13.10
2023-04-27T16:17:46.913Z,13.10
2023-04-27T16:20:13.924Z,13.10
2023-04-27T16:22:41.379Z,13.10
2023-04-27T16:25:10.960Z,13.10
2023-04-27T16:27:39.294Z,13.20
2023-04-27T16:30:07.595Z,13.10
2023-04-27T16:32:35.769Z,13.00
2023-04-27T16:35:03.467Z,13.00
2023-04-27T16:37:30.391Z,12.80
2023-04-27T16:40:01.355Z,12.70
2023-04-27T16:42:28.749Z,12.70
2023-04-27T16:44:56.778Z,12.70
2023-04-27T16:47:23.611Z,12.70
2023-04-27T16:49:51.322Z,12.70
2023-04-27T16:52:19.059Z,12.60
2023-04-27T16:54:46.045Z,12.60
2023-04-27T16:57:13.372Z,12.60
2023-04-27T16:59:40.171Z,12.70
2023-04-27T17:02:23.979Z,12.50
2023-04-27T17:04:52.855Z,12.50
2023-04-27T17:07:20.217Z,12.40
2023-04-27T17:09:47.124Z,12.40
2023-04-27T17:12:14.805Z,12.40
2023-04-27T17:14:42.486Z,12.40
2023-04-27T17:17:10.238Z,12.40
2023-04-27T17:19:37.018Z,12.30
2023-04-27T17:22:04.382Z,12.30
2023-04-27T17:24:31.404Z,12.20
2023-04-27T17:26:58.242Z,12.10
2023-04-27T17:29:25.123Z,12.00
2023-04-27T17:31:51.929Z,12.00
2023-04-27T17:34:18.937Z,12.00
2023-04-27T17:36:46.185Z,12.00
2023-04-27T17:39:13.870Z,11.90
2023-04-27T17:41:41.585Z,11.90
2023-04-27T17:44:08.466Z,11.80
2023-04-27T17:46:37.074Z,11.70
2023-04-27T17:49:03.990Z,11.70
2023-04-27T17:51:32.979Z,11.60
2023-04-27T17:54:00.025Z,11.60
2023-04-27T17:56:26.909Z,11.50
2023-04-27T17:58:53.779Z,11.40
2023-04-27T18:01:20.831Z,11.40
2023-04-27T18:03:49.861Z,11.30
2023-04-27T18:06:19.319Z,11.30
2023-04-27T18:08:46.068Z,11.30
2023-04-27T18:11:13.042Z,11.20
2023-04-27T18:13:39.889Z,11.10
2023-04-27T18:16:06.913Z,11.10
2023-04-27T18:18:34.015Z,11.10
2023-04-27T18:21:01.031Z,11.00
2023-04-27T18:23:28.006Z,10.90
2023-04-27T18:25:59.912Z,11.10
2023-04-27T18:28:26.996Z,10.90
2023-04-27T18:30:53.928Z,10.80
2023-04-27T18:33:21.277Z,10.70
2023-04-27T18:35:48.277Z,10.70
2023-04-27T18:38:15.200Z,10.70
2023-04-27T18:40:42.165Z,10.60
2023-04-27T18:43:09.236Z,10.50
2023-04-27T18:45:36.223Z,10.40
2023-04-27T18:48:03.229Z,10.30
2023-04-27T18:50:30.182Z,10.20
2023-04-27T18:52:59.069Z,10.10
2023-04-27T18:55:26.142Z,10.10
2023-04-27T18:57:53.036Z,10.00
2023-04-27T19:00:20.073Z,10.00
2023-04-27T19:02:48.093Z,9.90
2023-04-27T19:05:16.125Z,9.90
2023-04-27T19:07:43.437Z,9.80
2023-04-27T19:10:11.516Z,9.70
2023-04-27T19:12:39.245Z,9.60
2023-04-27T19:15:06.773Z,9.50
2023-04-27T19:17:35.075Z,9.50
2023-04-27T19:20:02.196Z,9.40
2023-04-27T19:22:34.099Z,9.40
2023-04-27T19:25:01.708Z,9.30
2023-04-27T19:27:28.753Z,9.20
2023-04-27T19:29:57.701Z,9.20
2023-04-27T19:32:28.612Z,9.20
2023-04-27T19:34:56.547Z,9.10
2023-04-27T19:37:32.795Z,9.00
2023-04-27T19:40:00.324Z,9.00
2023-04-27T19:42:27.227Z,8.90
2023-04-27T19:44:55.780Z,8.90
2023-04-27T19:47:24.009Z,8.80
2023-04-27T19:49:50.954Z,8.80
2023-04-27T19:52:17.892Z,8.80
2023-04-27T19:54:44.969Z,8.70
2023-04-27T19:57:11.838Z,8.60
2023-04-27T19:59:38.645Z,8.50
2023-04-27T20:02:05.559Z,8.40
2023-04-27T20:04:33.026Z,8.40
2023-04-27T20:07:00.199Z,8.30
2023-04-27T20:09:27.098Z,8.20
2023-04-27T20:11:55.186Z,8.20
2023-04-27T20:14:22.552Z,8.20
2023-04-27T20:16:49.728Z,8.20
2023-04-27T20:19:19.201Z,8.10
2023-04-27T20:21:46.358Z,8.00
2023-04-27T20:24:13.474Z,7.90
2023-04-27T20:26:40.646Z,7.90
2023-04-27T20:29:07.542Z,7.80
2023-04-27T20:31:34.489Z,7.70
2023-04-27T20:34:01.329Z,7.70
2023-04-27T20:36:28.486Z,7.50
2023-04-27T20:38:57.723Z,7.40
2023-04-27T20:41:25.790Z,7.50
2023-04-27T20:43:53.064Z,7.40
2023-04-27T20:46:20.606Z,7.40
2023-04-27T20:48:47.916Z,7.40
2023-04-27T20:51:15.135Z,7.40
2023-04-27T20:53:42.397Z,7.40
2023-04-27T20:56:09.829Z,7.40
2023-04-27T20:58:36.948Z,7.30
2023-04-27T21:01:04.182Z,7.30
2023-04-27T21:03:31.821Z,7.30
2023-04-27T21:05:59.318Z,7.20
2023-04-27T21:08:28.089Z,7.20
2023-04-27T21:10:57.116Z,7.20
2023-04-27T21:13:24.849Z,7.10
2023-04-27T21:15:52.023Z,7.00
2023-04-27T21:18:28.982Z,7.00
2023-04-27T21:20:57.245Z,7.00
2023-04-27T21:23:24.098Z,7.00
2023-04-27T21:25:50.915Z,6.90
2023-04-27T21:28:17.763Z,6.90
2023-04-27T21:30:44.623Z,6.90
2023-04-27T21:33:11.771Z,6.80
2023-04-27T21:35:38.607Z,6.80
2023-04-27T21:38:05.931Z,6.60
2023-04-27T21:40:32.791Z,6.70
2023-04-27T21:42:59.765Z,6.70
2023-04-27T21:45:26.900Z,6.70
2023-04-27T21:47:53.876Z,6.70
2023-04-27T21:50:20.981Z,6.70
2023-04-27T21:52:47.826Z,6.70
2023-04-27T21:55:14.756Z,6.60
2023-04-27T21:57:41.627Z,6.80
2023-04-27T22:00:13.657Z,6.70
2023-04-27T22:02:42.690Z,6.80
2023-04-27T22:05:09.823Z,6.80
2023-04-27T22:07:37.369Z,6.80
2023-04-27T22:10:05.802Z,6.90
2023-04-27T22:12:33.423Z,6.90
2023-04-27T22:15:00.518Z,7.00
2023-04-27T22:17:27.933Z,7.00
2023-04-27T22:19:54.871Z,7.00
2023-04-27T22:22:21.710Z,7.00
2023-04-27T22:24:48.750Z,7.10
2023-04-27T22:27:15.696Z,7.10
2023-04-27T22:29:42.596Z,7.10
2023-04-27T22:32:10.150Z,7.10
2023-04-27T22:34:37.464Z,7.10
2023-04-27T22:37:04.575Z,7.10
2023-04-27T22:39:32.429Z,7.10
2023-04-27T22:41:59.296Z,7.10
2023-04-27T22:44:26.080Z,7.10
2023-04-27T22:46:53.041Z,7.10
2023-04-27T22:49:19.853Z,7.10
2023-04-27T22:51:47.300Z,7.10
2023-04-27T22:54:14.895Z,7.10
2023-04-27T22:56:41.864Z,7.10
2023-04-27T22:59:08.644Z,7.10
2023-04-27T23:01:35.771Z,7.10
2023-04-27T23:04:03.137Z,7.30
2023-04-27T23:06:30.364Z,7.10
2023-04-27T23:08:57.260Z,7.10
2023-04-27T23:11:24.120Z,7.10
2023-04-27T23:13:51.021Z,7.10
2023-04-27T23:16:17.959Z,7.10
2023-04-27T23:18:44.810Z,7.00
2023-04-27T23:21:11.853Z,6.90
2023-04-27T23:23:38.727Z,7.00
2023-04-27T23:26:14.852Z,7.10
2023-04-27T23:28:42.229Z,7.00
2023-04-27T23:31:09.663Z,7.00
2023-04-27T23:33:36.847Z,6.90
2023-04-27T23:36:04.638Z,6.90
2023-04-27T23:38:31.464Z,6.90
2023-04-27T23:40:58.632Z,7.00
2023-04-27T23:43:25.445Z,6.90
2023-04-27T23:45:52.842Z,6.90
2023-04-27T23:48:19.955Z,6.80
2023-04-27T23:50:46.716Z,6.90
2023-04-27T23:53:13.659Z,6.90
2023-04-27T23:55:40.440Z,6.90
2023-04-27T23:58:07.270Z,6.90
